Time,TemperatureF,DewpointF,PressureIn,WindDirection,WindDirectionDegrees,WindSpeedMPH,WindSpeedGustMPH,Humidity,HourlyPrecipIn,Conditions,Clouds,dailyrainin,SoftwareType,DateUTC
2013-03-01 00:00:00,30.9,26.1,29.70,WNW,292,0.0,0.0,82,0.00,,---,0.06,VWS V14.01,2013-03-01 05:00:00,
2013-03-01 00:05:00,30.9,26.1,29.70,WNW,292,0.0,0.0,82,0.00,,---,0.00,VWS V14.01,2013-03-01 05:05:00,
2013-03-01 00:06:00,30.9,26.1,29.70,WNW,292,0.0,0.0,82,0.00,,---,0.00,VWS V14.01,2013-03-01 05:06:00,
2013-03-01 00:11:00,30.9,26.1,29.70,WNW,292,0.0,0.0,82,0.00,,---,0.00,VWS V14.01,2013-03-01 05:11:00,
2013-03-01 00:16:00,30.9,26.1,29.70,WNW,292,0.0,0.0,82,0.00,,---,0.00,VWS V14.01,2013-03-01 05:16:00,
2013-03-01 00:21:00,30.7,25.9,29.70,WNW,292,0.0,0.0,82,0.00,,---,0.00,VWS V14.01,2013-03-01 05:21:00,
2013-03-01 00:26:00,30.7,25.9,29.70,WNW,292,0.0,0.0,82,0.00,,---,0.00,VWS V14.01,2013-03-01 05:26:00,
2013-03-01 00:31:00,30.9,26.1,29.70,WNW,292,0.0,0.0,82,0.00,,---,0.00,VWS V14.01,2013-03-01 05:31:00,
2013-03-01 00:36:00,30.7,25.9,29.70,WNW,292,0.0,0.0,82,0.00,,---,0.00,VWS V14.01,2013-03-01 05:36:00,
2013-03-01 00:41:00,30.7,25.9,29.70,WNW,292,0.0,0.0,82,0.00,,---,0.00,VWS V14.01,2013-03-01 05:41:00,
2013-03-01 00:46:00,30.7,25.9,29.70,WNW,292,0.0,0.0,82,0.00,,---,0.00,VWS V14.01,2013-03-01 05:46:00,
2013-03-01 00:51:00,30.7,25.9,29.70,WNW,292,0.0,0.0,82,0.00,,---,0.00,VWS V14.01,2013-03-01 05:51:00,
2013-03-01 00:56:00,30.9,26.1,29.70,WNW,292,0.0,0.0,82,0.00,,---,0.00,VWS V14.01,2013-03-01 05:56:00,
2013-03-01 01:01:00,30.7,25.9,29.70,WNW,292,0.0,0.0,82,0.00,,---,0.00,VWS V14.01,2013-03-01 06:01:00,
2013-03-01 01:06:00,30.7,25.9,29.70,WNW,292,0.0,0.0,82,0.00,,---,0.00,VWS V14.01,2013-03-01 06:06:00,
2013-03-01 01:11:00,30.7,25.9,29.70,WNW,292,0.0,0.0,82,0.00,,---,0.00,VWS V14.01,2013-03-01 06:11:00,
2013-03-01 01:16:00,30.7,25.9,29.70,WNW,292,0.0,0.0,82,0.00,,---,0.00,VWS V14.01,2013-03-01 06:16:00,
2013-03-01 01:21:00,30.7,25.9,29.70,WNW,292,0.0,0.0,82,0.00,,---,0.00,VWS V14.01,2013-03-01 06:21:00,
2013-03-01 01:26:00,30.7,25.9,29.70,WNW,292,0.0,0.0,82,0.00,,---,0.00,VWS V14.01,2013-03-01 06:26:00,
2013-03-01 01:31:00,30.7,25.9,29.70,WNW,292,0.0,0.0,82,0.00,,---,0.00,VWS V14.01,2013-03-01 06:31:00,
2013-03-01 01:36:00,30.7,25.9,29.70,WNW,292,0.0,0.0,82,0.00,,---,0.00,VWS V14.01,2013-03-01 06:36:00,
2013-03-01 01:41:00,30.7,25.9,29.70,WNW,292,0.0,0.0,82,0.00,,---,0.00,VWS V14.01,2013-03-01 06:41:00,
2013-03-01 01:46:00,30.7,25.9,29.70,WNW,292,0.0,0.0,82,0.00,,---,0.00,VWS V14.01,2013-03-01 06:46:00,
2013-03-01 01:51:00,30.7,25.9,29.69,WNW,292,0.0,0.0,82,0.00,,---,0.00,VWS V14.01,2013-03-01 06:51:00,
2013-03-01 01:56:00,30.7,25.9,29.69,WNW,292,0.0,0.0,82,0.00,,---,0.00,VWS V14.01,2013-03-01 06:56:00,
2013-03-01 02:01:00,30.5,25.7,29.69,WNW,292,0.0,0.0,82,0.00,,---,0.00,VWS V14.01,2013-03-01 07:01:00,
2013-03-01 02:06:00,30.5,25.7,29.69,WNW,292,0.0,0.0,82,0.00,,---,0.00,VWS V14.01,2013-03-01 07:06:00,
2013-03-01 02:11:00,30.5,25.7,29.69,WNW,292,0.0,0.0,82,0.00,,---,0.00,VWS V14.01,2013-03-01 07:11:00,
2013-03-01 02:16:00,30.3,25.5,29.69,WNW,292,0.0,0.0,82,0.00,,---,0.00,VWS V14.01,2013-03-01 07:16:00,
2013-03-01 02:21:00,30.2,25.4,29.69,WNW,292,0.0,0.0,82,0.00,,---,0.00,VWS V14.01,2013-03-01 07:21:00,
2013-03-01 02:26:00,30.0,25.2,29.69,WNW,292,0.0,0.0,82,0.00,,---,0.00,VWS V14.01,2013-03-01 07:26:00,
2013-03-01 02:31:00,30.0,25.2,29.69,WNW,292,0.0,0.0,82,0.00,,---,0.00,VWS V14.01,2013-03-01 07:31:00,
2013-03-01 02:36:00,30.0,25.2,29.69,WNW,292,0.0,0.0,82,0.00,,---,0.00,VWS V14.01,2013-03-01 07:36:00,
2013-03-01 02:41:00,30.0,25.2,29.69,WNW,292,0.0,0.0,82,0.00,,---,0.00,VWS V14.01,2013-03-01 07:41:00,
2013-03-01 02:46:00,29.8,25.0,29.69,WNW,292,0.0,0.0,82,0.00,,---,0.00,VWS V14.01,2013-03-01 07:46:00,
2013-03-01 02:51:00,29.8,25.0,29.69,WNW,292,0.0,0.0,82,0.00,,---,0.00,VWS V14.01,2013-03-01 07:51:00,
2013-03-01 02:56:00,29.8,25.0,29.69,WNW,292,0.0,0.0,82,0.00,,---,0.00,VWS V14.01,2013-03-01 07:56:00,
2013-03-01 03:01:00,29.8,25.0,29.69,WNW,292,0.0,0.0,82,0.00,,---,0.00,VWS V14.01,2013-03-01 08:01:00,
2013-03-01 03:06:00,29.8,25.0,29.69,WNW,292,0.0,0.0,82,0.00,,---,0.00,VWS V14.01,2013-03-01 08:06:00,
2013-03-01 03:11:00,29.8,25.0,29.69,WNW,292,0.0,0.0,82,0.00,,---,0.00,VWS V14.01,2013-03-01 08:11:00,
2013-03-01 03:16:00,29.6,24.8,29.70,WNW,292,0.0,0.0,82,0.00,,---,0.00,VWS V14.01,2013-03-01 08:16:00,
2013-03-01 03:21:00,29.4,24.6,29.70,WNW,292,0.0,0.0,82,0.00,,---,0.00,VWS V14.01,2013-03-01 08:21:00,
2013-03-01 03:26:00,29.4,24.6,29.70,WNW,292,0.0,0.0,82,0.00,,---,0.00,VWS V14.01,2013-03-01 08:26:00,
2013-03-01 03:31:00,29.4,24.6,29.70,WNW,292,0.0,0.0,82,0.00,,---,0.00,VWS V14.01,2013-03-01 08:31:00,
2013-03-01 03:36:00,29.3,24.5,29.70,WNW,292,0.0,0.0,82,0.00,,---,0.00,VWS V14.01,2013-03-01 08:36:00,
2013-03-01 03:41:00,29.3,24.5,29.70,WNW,292,0.0,0.0,82,0.00,,---,0.00,VWS V14.01,2013-03-01 08:41:00,
2013-03-01 03:46:00,29.3,24.5,29.70,WNW,292,0.0,0.0,82,0.00,,---,0.00,VWS V14.01,2013-03-01 08:46:00,
2013-03-01 03:51:00,29.3,24.8,29.70,WNW,292,0.0,0.0,83,0.00,,---,0.00,VWS V14.01,2013-03-01 08:51:00,
2013-03-01 03:56:00,29.3,24.8,29.70,WNW,292,0.0,0.0,83,0.00,,---,0.00,VWS V14.01,2013-03-01 08:56:00,
2013-03-01 04:01:00,29.3,24.8,29.70,WNW,292,0.0,0.0,83,0.00,,---,0.00,VWS V14.01,2013-03-01 09:01:00,
2013-03-01 04:06:00,29.3,24.8,29.70,WNW,292,0.0,0.0,83,0.00,,---,0.00,VWS V14.01,2013-03-01 09:06:00,
2013-03-01 04:11:00,29.4,24.9,29.70,WNW,292,0.0,0.0,83,0.00,,---,0.00,VWS V14.01,2013-03-01 09:11:00,
2013-03-01 04:16:00,29.4,24.9,29.70,WNW,292,0.0,0.0,83,0.00,,---,0.00,VWS V14.01,2013-03-01 09:16:00,
2013-03-01 04:21:00,29.4,24.9,29.71,WNW,292,0.0,0.0,83,0.00,,---,0.00,VWS V14.01,2013-03-01 09:21:00,
2013-03-01 04:26:00,29.4,24.9,29.70,WNW,292,0.0,0.0,83,0.00,,---,0.00,VWS V14.01,2013-03-01 09:26:00,
2013-03-01 04:31:00,29.4,24.9,29.71,WNW,292,0.0,0.0,83,0.00,,---,0.00,VWS V14.01,2013-03-01 09:31:00,
2013-03-01 04:36:00,29.4,24.9,29.71,WNW,292,0.0,0.0,83,0.00,,---,0.00,VWS V14.01,2013-03-01 09:36:00,
2013-03-01 04:41:00,29.6,25.1,29.71,WNW,292,0.0,0.0,83,0.00,,---,0.00,VWS V14.01,2013-03-01 09:41:00,
2013-03-01 04:46:00,29.6,25.1,29.71,WNW,292,0.0,0.0,83,0.00,,---,0.00,VWS V14.01,2013-03-01 09:46:00,
2013-03-01 04:51:00,29.6,25.1,29.71,WNW,292,0.0,0.0,83,0.00,,---,0.00,VWS V14.01,2013-03-01 09:51:00,
2013-03-01 04:56:00,29.6,25.1,29.71,WNW,292,0.0,0.0,83,0.00,,---,0.00,VWS V14.01,2013-03-01 09:56:00,
2013-03-01 05:01:00,29.6,25.1,29.71,WNW,292,0.0,0.0,83,0.00,,---,0.00,VWS V14.01,2013-03-01 10:01:00,
2013-03-01 05:06:00,29.6,25.1,29.71,WNW,292,0.0,0.0,83,0.00,,---,0.00,VWS V14.01,2013-03-01 10:06:00,
2013-03-01 05:11:00,29.6,25.1,29.71,WNW,292,0.0,0.0,83,0.00,,---,0.00,VWS V14.01,2013-03-01 10:11:00,
2013-03-01 05:17:00,29.4,24.9,29.71,WNW,292,0.0,0.0,83,0.00,,---,0.00,VWS V14.01,2013-03-01 10:17:00,
2013-03-01 05:22:00,29.4,24.9,29.71,WNW,292,0.0,0.0,83,0.00,,---,0.00,VWS V14.01,2013-03-01 10:22:00,
2013-03-01 05:27:00,29.6,25.1,29.71,WNW,292,0.0,0.0,83,0.00,,---,0.00,VWS V14.01,2013-03-01 10:27:00,
2013-03-01 05:32:00,29.4,24.9,29.72,WNW,292,0.0,0.0,83,0.00,,---,0.00,VWS V14.01,2013-03-01 10:32:00,
2013-03-01 05:37:00,29.4,24.9,29.72,WNW,292,0.0,0.0,83,0.00,,---,0.00,VWS V14.01,2013-03-01 10:37:00,
2013-03-01 05:42:00,29.4,24.9,29.72,WNW,292,0.0,0.0,83,0.00,,---,0.00,VWS V14.01,2013-03-01 10:42:00,
2013-03-01 05:47:00,29.4,24.9,29.72,WNW,292,0.0,0.0,83,0.00,,---,0.00,VWS V14.01,2013-03-01 10:47:00,
2013-03-01 05:52:00,29.4,24.9,29.72,WNW,292,0.0,0.0,83,0.00,,---,0.00,VWS V14.01,2013-03-01 10:52:00,
2013-03-01 05:57:00,29.6,25.1,29.73,WNW,292,0.0,0.0,83,0.00,,---,0.00,VWS V14.01,2013-03-01 10:57:00,
2013-03-01 06:02:00,29.6,25.1,29.73,WNW,292,0.0,0.0,83,0.00,,---,0.00,VWS V14.01,2013-03-01 11:02:00,
2013-03-01 06:07:00,29.4,24.9,29.73,WNW,292,0.0,0.0,83,0.00,,---,0.00,VWS V14.01,2013-03-01 11:07:00,
2013-03-01 06:12:00,29.6,25.1,29.73,WNW,292,0.0,0.0,83,0.00,,---,0.00,VWS V14.01,2013-03-01 11:12:00,
2013-03-01 06:17:00,29.4,24.9,29.73,WNW,292,0.0,0.0,83,0.00,,---,0.00,VWS V14.01,2013-03-01 11:17:00,
2013-03-01 06:22:00,29.4,24.9,29.73,WNW,292,0.0,0.0,83,0.00,,---,0.00,VWS V14.01,2013-03-01 11:22:00,
2013-03-01 06:27:00,29.4,24.9,29.73,WNW,292,0.0,0.0,83,0.00,,---,0.00,VWS V14.01,2013-03-01 11:27:00,
2013-03-01 06:32:00,29.6,25.1,29.73,WNW,292,0.0,0.0,83,0.00,,---,0.00,VWS V14.01,2013-03-01 11:32:00,
2013-03-01 06:37:00,29.6,25.1,29.73,WNW,292,0.0,0.0,83,0.00,,---,0.00,VWS V14.01,2013-03-01 11:37:00,
2013-03-01 06:42:00,29.6,25.1,29.73,WNW,292,0.0,0.0,83,0.00,,---,0.00,VWS V14.01,2013-03-01 11:42:00,
2013-03-01 06:47:00,29.6,25.1,29.73,WNW,292,0.0,0.0,83,0.00,,---,0.00,VWS V14.01,2013-03-01 11:47:00,
2013-03-01 06:52:00,29.6,25.1,29.73,NW,315,0.0,0.0,83,0.00,,---,0.00,VWS V14.01,2013-03-01 11:52:00,
2013-03-01 06:57:00,29.6,25.1,29.74,NW,315,0.0,0.0,83,0.00,,---,0.00,VWS V14.01,2013-03-01 11:57:00,
2013-03-01 07:02:00,29.6,25.1,29.74,NW,315,0.0,0.0,83,0.00,,---,0.00,VWS V14.01,2013-03-01 12:02:00,
2013-03-01 07:07:00,29.6,25.1,29.74,WNW,292,0.0,0.0,83,0.00,,---,0.00,VWS V14.01,2013-03-01 12:07:00,
2013-03-01 07:12:00,29.6,25.1,29.74,NW,315,0.0,0.0,83,0.00,,---,0.00,VWS V14.01,2013-03-01 12:12:00,
2013-03-01 07:17:00,29.4,24.9,29.74,NW,315,0.0,0.0,83,0.00,,---,0.00,VWS V14.01,2013-03-01 12:17:00,
2013-03-01 07:22:00,29.6,25.1,29.74,NW,315,0.0,0.0,83,0.00,,---,0.00,VWS V14.01,2013-03-01 12:22:00,
2013-03-01 07:27:00,29.6,25.4,29.74,NW,315,0.0,0.0,84,0.00,,---,0.00,VWS V14.01,2013-03-01 12:27:00,
2013-03-01 07:32:00,29.4,25.2,29.74,WNW,292,0.0,0.0,84,0.00,,---,0.00,VWS V14.01,2013-03-01 12:32:00,
2013-03-01 07:37:00,29.4,25.2,29.75,NW,315,0.0,0.0,84,0.00,,---,0.00,VWS V14.01,2013-03-01 12:37:00,
2013-03-01 07:42:00,29.4,25.2,29.75,NW,315,0.0,0.0,84,0.00,,---,0.00,VWS V14.01,2013-03-01 12:42:00,
2013-03-01 07:47:00,29.4,25.2,29.75,NW,315,0.0,0.0,84,0.00,,---,0.00,VWS V14.01,2013-03-01 12:47:00,
2013-03-01 07:52:00,29.4,25.2,29.75,NW,315,0.0,0.0,84,0.00,,---,0.00,VWS V14.01,2013-03-01 12:52:00,
2013-03-01 07:57:00,29.4,25.2,29.75,NW,315,0.0,0.0,84,0.00,,---,0.00,VWS V14.01,2013-03-01 12:57:00,
2013-03-01 08:02:00,29.4,25.2,29.75,NW,315,0.0,0.0,84,0.00,,---,0.00,VWS V14.01,2013-03-01 13:02:00,
2013-03-01 08:07:00,29.4,25.2,29.75,NW,315,0.0,0.0,84,0.00,,---,0.00,VWS V14.01,2013-03-01 13:07:00,
2013-03-01 08:12:00,29.4,25.2,29.75,NW,315,0.0,0.0,84,0.00,,---,0.00,VWS V14.01,2013-03-01 13:12:00,
2013-03-01 08:17:00,29.4,25.2,29.76,NW,315,0.0,0.0,84,0.00,,---,0.00,VWS V14.01,2013-03-01 13:17:00,
2013-03-01 08:22:00,29.4,25.2,29.75,NW,315,0.0,0.0,84,0.00,,---,0.00,VWS V14.01,2013-03-01 13:22:00,
2013-03-01 08:27:00,29.4,25.2,29.76,NW,315,0.0,0.0,84,0.00,,---,0.00,VWS V14.01,2013-03-01 13:27:00,
2013-03-01 08:32:00,29.4,25.2,29.76,WSW,248,0.0,0.0,84,0.00,,---,0.00,VWS V14.01,2013-03-01 13:32:00,
2013-03-01 08:37:00,29.4,24.9,29.76,West,270,0.0,0.0,83,0.00,,---,0.00,VWS V14.01,2013-03-01 13:37:00,
2013-03-01 08:42:00,29.4,24.9,29.76,WSW,248,0.0,0.0,83,0.00,,---,0.00,VWS V14.01,2013-03-01 13:42:00,
2013-03-01 08:47:00,29.6,25.1,29.75,West,270,0.0,0.0,83,0.00,,---,0.00,VWS V14.01,2013-03-01 13:47:00,
2013-03-01 08:52:00,29.4,24.9,29.75,WSW,248,0.0,0.0,83,0.00,,---,0.00,VWS V14.01,2013-03-01 13:52:00,
2013-03-01 08:57:00,29.6,25.1,29.75,West,270,0.0,0.0,83,0.00,,---,0.00,VWS V14.01,2013-03-01 13:57:00,
2013-03-01 09:02:00,29.6,25.1,29.76,West,270,0.0,0.0,83,0.00,,---,0.00,VWS V14.01,2013-03-01 14:02:00,
2013-03-01 09:07:00,29.6,25.1,29.76,WNW,292,0.0,0.0,83,0.00,,---,0.00,VWS V14.01,2013-03-01 14:07:00,
2013-03-01 09:12:00,29.6,25.1,29.76,ESE,112,0.0,0.0,83,0.00,,---,0.00,VWS V14.01,2013-03-01 14:12:00,
2013-03-01 09:17:00,29.8,25.3,29.76,NW,315,0.0,0.0,83,0.00,,---,0.00,VWS V14.01,2013-03-01 14:17:00,
2013-03-01 09:22:00,29.8,25.3,29.76,NW,315,0.0,0.0,83,0.00,,---,0.00,VWS V14.01,2013-03-01 14:22:00,
2013-03-01 09:27:00,29.8,25.3,29.76,WNW,292,0.0,0.0,83,0.00,,---,0.00,VWS V14.01,2013-03-01 14:27:00,
2013-03-01 09:32:00,29.8,25.3,29.76,NW,315,0.0,0.0,83,0.00,,---,0.00,VWS V14.01,2013-03-01 14:32:00,
2013-03-01 09:37:00,29.8,25.3,29.76,NW,315,0.0,0.0,83,0.00,,---,0.00,VWS V14.01,2013-03-01 14:37:00,
2013-03-01 09:42:00,29.8,25.3,29.76,NW,315,0.0,0.0,83,0.00,,---,0.00,VWS V14.01,2013-03-01 14:42:00,
2013-03-01 09:47:00,29.8,25.3,29.76,North,0,0.0,0.0,83,0.00,,---,0.00,VWS V14.01,2013-03-01 14:47:00,
2013-03-01 09:52:00,29.8,25.3,29.76,NNW,338,0.0,0.0,83,0.00,,---,0.00,VWS V14.01,2013-03-01 14:52:00,
2013-03-01 09:57:00,29.8,25.3,29.76,NNW,338,0.0,0.0,83,0.00,,---,0.00,VWS V14.01,2013-03-01 14:57:00,
2013-03-01 10:02:00,29.8,25.3,29.76,NNW,338,0.0,0.0,83,0.00,,---,0.00,VWS V14.01,2013-03-01 15:02:00,
2013-03-01 10:07:00,29.8,25.0,29.76,NNW,338,0.0,0.0,82,0.00,,---,0.00,VWS V14.01,2013-03-01 15:07:00,
2013-03-01 10:12:00,30.0,25.2,29.76,NNW,338,0.0,0.0,82,0.00,,---,0.00,VWS V14.01,2013-03-01 15:12:00,
2013-03-01 10:18:00,30.0,25.2,29.77,NNW,338,0.0,0.0,82,0.00,,---,0.00,VWS V14.01,2013-03-01 15:18:00,
2013-03-01 10:23:00,29.8,25.0,29.77,East,90,0.0,0.0,82,0.00,,---,0.00,VWS V14.01,2013-03-01 15:23:00,
2013-03-01 10:28:00,29.8,25.0,29.77,East,90,0.0,0.0,82,0.00,,---,0.00,VWS V14.01,2013-03-01 15:28:00,
2013-03-01 10:33:00,29.8,25.0,29.77,North,0,0.0,0.0,82,0.00,,---,0.00,VWS V14.01,2013-03-01 15:33:00,
2013-03-01 10:38:00,30.0,25.2,29.76,North,0,0.0,0.0,82,0.00,,---,0.00,VWS V14.01,2013-03-01 15:38:00,
2013-03-01 10:43:00,30.0,25.2,29.76,NNW,338,0.0,0.0,82,0.00,,---,0.00,VWS V14.01,2013-03-01 15:43:00,
2013-03-01 10:48:00,30.0,25.2,29.77,NNW,338,0.0,0.0,82,0.00,,---,0.00,VWS V14.01,2013-03-01 15:48:00,
2013-03-01 10:53:00,30.0,25.2,29.76,WSW,248,0.0,0.0,82,0.00,,---,0.00,VWS V14.01,2013-03-01 15:53:00,
2013-03-01 10:58:00,30.0,25.2,29.76,WSW,248,0.0,0.0,82,0.00,,---,0.00,VWS V14.01,2013-03-01 15:58:00,
2013-03-01 11:03:00,30.0,25.2,29.76,WNW,292,0.0,0.0,82,0.00,,---,0.00,VWS V14.01,2013-03-01 16:03:00,
2013-03-01 11:08:00,30.2,25.4,29.77,WNW,292,0.0,0.0,82,0.00,,---,0.00,VWS V14.01,2013-03-01 16:08:00,
2013-03-01 11:13:00,30.0,25.2,29.77,WNW,292,0.0,0.0,82,0.00,,---,0.00,VWS V14.01,2013-03-01 16:13:00,
2013-03-01 11:18:00,30.0,24.9,29.77,WNW,292,0.0,0.0,81,0.00,,---,0.00,VWS V14.01,2013-03-01 16:18:00,
2013-03-01 11:23:00,30.2,25.1,29.77,WNW,292,0.0,0.0,81,0.00,,---,0.00,VWS V14.01,2013-03-01 16:23:00,
2013-03-01 11:28:00,30.2,25.1,29.78,WNW,292,0.0,0.0,81,0.00,,---,0.00,VWS V14.01,2013-03-01 16:28:00,
2013-03-01 11:33:00,30.2,25.1,29.78,NW,315,0.0,0.0,81,0.00,,---,0.00,VWS V14.01,2013-03-01 16:33:00,
2013-03-01 11:38:00,30.0,24.9,29.78,NW,315,0.0,0.0,81,0.00,,---,0.00,VWS V14.01,2013-03-01 16:38:00,
2013-03-01 11:43:00,30.0,24.9,29.78,NW,315,0.0,0.0,81,0.00,,---,0.00,VWS V14.01,2013-03-01 16:43:00,
2013-03-01 11:48:00,30.3,25.2,29.78,NW,315,0.0,0.0,81,0.00,,---,0.00,VWS V14.01,2013-03-01 16:48:00,
2013-03-01 11:53:00,30.3,25.2,29.78,NW,315,0.0,0.0,81,0.00,,---,0.00,VWS V14.01,2013-03-01 16:53:00,
2013-03-01 11:58:00,30.3,25.2,29.78,NW,315,0.0,0.0,81,0.00,,---,0.00,VWS V14.01,2013-03-01 16:58:00,
2013-03-01 12:03:00,30.3,25.2,29.78,NW,315,0.0,0.0,81,0.00,,---,0.00,VWS V14.01,2013-03-01 17:03:00,
2013-03-01 12:08:00,30.3,25.2,29.78,NW,315,0.0,0.0,81,0.00,,---,0.00,VWS V14.01,2013-03-01 17:08:00,
2013-03-01 12:13:00,30.5,25.4,29.78,NNW,338,0.0,0.0,81,0.00,,---,0.00,VWS V14.01,2013-03-01 17:13:00,
2013-03-01 12:18:00,30.7,25.6,29.78,NNW,338,0.0,0.0,81,0.00,,---,0.00,VWS V14.01,2013-03-01 17:18:00,
2013-03-01 12:23:00,30.7,25.6,29.78,NW,315,0.0,0.0,81,0.00,,---,0.00,VWS V14.01,2013-03-01 17:23:00,
2013-03-01 12:28:00,30.7,25.6,29.78,NW,315,0.0,0.0,81,0.00,,---,0.00,VWS V14.01,2013-03-01 17:28:00,
2013-03-01 12:33:00,30.9,25.8,29.78,North,0,0.0,0.0,81,0.00,,---,0.00,VWS V14.01,2013-03-01 17:33:00,
2013-03-01 12:38:00,31.1,26.0,29.78,NNW,338,0.0,0.0,81,0.00,,---,0.00,VWS V14.01,2013-03-01 17:38:00,
2013-03-01 12:43:00,31.1,25.7,29.78,ENE,68,0.0,0.0,80,0.00,,---,0.00,VWS V14.01,2013-03-01 17:43:00,
2013-03-01 12:48:00,31.1,25.7,29.78,ENE,68,0.0,0.0,80,0.00,,---,0.00,VWS V14.01,2013-03-01 17:48:00,
2013-03-01 12:53:00,31.1,25.7,29.78,ENE,68,0.0,0.0,80,0.00,,---,0.00,VWS V14.01,2013-03-01 17:53:00,
2013-03-01 12:58:00,31.1,25.7,29.78,NW,315,0.0,0.0,80,0.00,,---,0.00,VWS V14.01,2013-03-01 17:58:00,
2013-03-01 13:03:00,31.1,25.7,29.78,NW,315,0.0,0.0,80,0.00,,---,0.00,VWS V14.01,2013-03-01 18:03:00,
2013-03-01 13:08:00,30.9,25.5,29.78,NW,315,0.0,0.0,80,0.00,,---,0.00,VWS V14.01,2013-03-01 18:08:00,
2013-03-01 13:13:00,30.9,25.5,29.77,NW,315,0.0,0.0,80,0.00,,---,0.00,VWS V14.01,2013-03-01 18:13:00,
2013-03-01 13:18:00,31.1,25.7,29.78,NNW,338,0.0,0.0,80,0.02,,---,0.02,VWS V14.01,2013-03-01 18:18:00,
2013-03-01 13:23:00,31.1,25.7,29.77,WSW,248,0.0,0.0,80,0.02,,---,0.02,VWS V14.01,2013-03-01 18:23:00,
2013-03-01 13:28:00,31.1,25.7,29.78,NW,315,0.0,0.0,80,0.02,,---,0.02,VWS V14.01,2013-03-01 18:28:00,
2013-03-01 13:33:00,31.1,25.7,29.78,NW,315,0.0,0.0,80,0.02,,---,0.02,VWS V14.01,2013-03-01 18:33:00,
2013-03-01 13:38:00,31.1,25.7,29.78,NW,315,0.0,0.0,80,0.02,,---,0.02,VWS V14.01,2013-03-01 18:38:00,
2013-03-01 13:43:00,30.9,25.2,29.78,WNW,292,0.0,0.0,79,0.02,,---,0.02,VWS V14.01,2013-03-01 18:43:00,
2013-03-01 13:48:00,30.9,25.2,29.78,WNW,292,0.0,0.0,79,0.02,,---,0.02,VWS V14.01,2013-03-01 18:48:00,
2013-03-01 13:53:00,30.7,25.0,29.78,NW,315,0.0,0.0,79,0.02,,---,0.02,VWS V14.01,2013-03-01 18:53:00,
2013-03-01 13:58:00,30.7,25.0,29.78,NW,315,0.0,0.0,79,0.02,,---,0.02,VWS V14.01,2013-03-01 18:58:00,
2013-03-01 14:03:00,30.5,24.8,29.78,NW,315,0.0,0.0,79,0.02,,---,0.02,VWS V14.01,2013-03-01 19:03:00,
2013-03-01 14:08:00,30.5,24.8,29.78,NW,315,0.0,0.0,79,0.02,,---,0.02,VWS V14.01,2013-03-01 19:08:00,
2013-03-01 14:13:00,30.3,24.6,29.78,NW,315,0.0,0.0,79,0.02,,---,0.02,VWS V14.01,2013-03-01 19:13:00,
2013-03-01 14:18:00,30.2,24.5,29.78,NNW,338,4.6,4.6,79,0.00,,---,0.02,VWS V14.01,2013-03-01 19:18:00,
2013-03-01 14:23:00,30.0,24.3,29.78,ENE,68,0.0,0.0,79,0.00,,---,0.02,VWS V14.01,2013-03-01 19:23:00,
2013-03-01 14:28:00,30.0,24.3,29.78,NW,315,0.0,0.0,79,0.00,,---,0.02,VWS V14.01,2013-03-01 19:28:00,
2013-03-01 14:33:00,29.8,24.4,29.79,NW,315,0.0,0.0,80,0.00,,---,0.02,VWS V14.01,2013-03-01 19:33:00,
2013-03-01 14:38:00,29.8,24.4,29.79,NW,315,0.0,0.0,80,0.00,,---,0.02,VWS V14.01,2013-03-01 19:38:00,
2013-03-01 14:43:00,29.8,24.4,29.79,NW,315,0.0,0.0,80,0.00,,---,0.02,VWS V14.01,2013-03-01 19:43:00,
2013-03-01 14:48:00,29.8,24.4,29.79,NW,315,0.0,0.0,80,0.00,,---,0.02,VWS V14.01,2013-03-01 19:48:00,
2013-03-01 14:53:00,29.6,24.2,29.79,NW,315,0.0,0.0,80,0.00,,---,0.02,VWS V14.01,2013-03-01 19:53:00,
2013-03-01 14:58:00,29.6,24.2,29.79,NW,315,0.0,0.0,80,0.00,,---,0.02,VWS V14.01,2013-03-01 19:58:00,
2013-03-01 15:03:00,29.4,24.0,29.79,SW,225,0.0,0.0,80,0.00,,---,0.02,VWS V14.01,2013-03-01 20:03:00,
2013-03-01 15:08:00,29.4,24.0,29.79,SW,225,0.0,0.0,80,0.00,,---,0.02,VWS V14.01,2013-03-01 20:08:00,
2013-03-01 15:13:00,29.4,24.0,29.79,NW,315,0.0,0.0,80,0.00,,---,0.02,VWS V14.01,2013-03-01 20:13:00,
2013-03-01 15:18:00,29.4,24.0,29.79,WNW,292,0.0,0.0,80,0.00,,---,0.02,VWS V14.01,2013-03-01 20:18:00,
2013-03-01 15:23:00,29.3,23.9,29.79,WNW,292,0.0,0.0,80,0.00,,---,0.02,VWS V14.01,2013-03-01 20:23:00,
2013-03-01 15:28:00,29.3,23.9,29.79,WNW,292,0.0,0.0,80,0.00,,---,0.02,VWS V14.01,2013-03-01 20:28:00,
2013-03-01 15:33:00,29.3,23.9,29.80,WNW,292,0.0,0.0,80,0.00,,---,0.02,VWS V14.01,2013-03-01 20:33:00,
2013-03-01 15:38:00,29.1,23.7,29.79,WNW,292,0.0,0.0,80,0.00,,---,0.02,VWS V14.01,2013-03-01 20:38:00,
2013-03-01 15:43:00,29.1,23.7,29.80,NW,315,0.0,0.0,80,0.00,,---,0.02,VWS V14.01,2013-03-01 20:43:00,
2013-03-01 15:48:00,28.9,23.5,29.80,NW,315,0.0,0.0,80,0.00,,---,0.02,VWS V14.01,2013-03-01 20:48:00,
2013-03-01 15:53:00,28.9,23.5,29.80,NW,315,0.0,0.0,80,0.00,,---,0.02,VWS V14.01,2013-03-01 20:53:00,
2013-03-01 15:58:00,29.1,23.7,29.80,NW,315,0.0,0.0,80,0.00,,---,0.02,VWS V14.01,2013-03-01 20:58:00,
2013-03-01 16:03:00,29.1,23.7,29.80,NW,315,0.0,0.0,80,0.00,,---,0.02,VWS V14.01,2013-03-01 21:03:00,
2013-03-01 16:08:00,28.9,23.5,29.80,NW,315,0.0,0.0,80,0.00,,---,0.02,VWS V14.01,2013-03-01 21:08:00,
2013-03-01 16:13:00,28.9,23.5,29.80,NW,315,0.0,0.0,80,0.00,,---,0.02,VWS V14.01,2013-03-01 21:13:00,
2013-03-01 16:18:00,28.7,23.3,29.80,NW,315,0.0,0.0,80,0.00,,---,0.02,VWS V14.01,2013-03-01 21:18:00,
2013-03-01 16:23:00,28.9,23.5,29.80,NW,315,0.0,0.0,80,0.00,,---,0.02,VWS V14.01,2013-03-01 21:23:00,
2013-03-01 16:28:00,28.7,23.3,29.80,West,270,0.0,0.0,80,0.00,,---,0.02,VWS V14.01,2013-03-01 21:28:00,
2013-03-01 16:33:00,28.7,23.3,29.81,WNW,292,0.0,0.0,80,0.00,,---,0.02,VWS V14.01,2013-03-01 21:33:00,
2013-03-01 16:38:00,28.5,23.1,29.81,NNW,338,0.0,0.0,80,0.00,,---,0.02,VWS V14.01,2013-03-01 21:38:00,
2013-03-01 16:43:00,28.5,23.1,29.81,SE,135,0.0,0.0,80,0.00,,---,0.02,VWS V14.01,2013-03-01 21:43:00,
2013-03-01 16:48:00,28.4,23.0,29.81,WNW,292,0.0,0.0,80,0.00,,---,0.02,VWS V14.01,2013-03-01 21:48:00,
2013-03-01 16:53:00,28.4,23.3,29.82,NW,315,0.0,0.0,81,0.00,,---,0.02,VWS V14.01,2013-03-01 21:53:00,
2013-03-01 16:58:00,28.2,23.1,29.82,NW,315,0.0,0.0,81,0.00,,---,0.02,VWS V14.01,2013-03-01 21:58:00,
2013-03-01 17:03:00,28.2,23.1,29.82,NW,315,0.0,0.0,81,0.00,,---,0.02,VWS V14.01,2013-03-01 22:03:00,
2013-03-01 17:08:00,28.2,23.1,29.82,NW,315,0.0,0.0,81,0.00,,---,0.02,VWS V14.01,2013-03-01 22:08:00,
2013-03-01 17:13:00,28.2,23.1,29.82,NW,315,0.0,0.0,81,0.00,,---,0.02,VWS V14.01,2013-03-01 22:13:00,
2013-03-01 17:18:00,28.0,22.9,29.82,NNE,22,0.0,0.0,81,0.00,,---,0.02,VWS V14.01,2013-03-01 22:18:00,
2013-03-01 17:23:00,28.0,22.9,29.82,NE,45,0.0,0.0,81,0.00,,---,0.02,VWS V14.01,2013-03-01 22:23:00,
2013-03-01 17:28:00,28.0,22.9,29.82,ENE,68,0.0,0.0,81,0.00,,---,0.02,VWS V14.01,2013-03-01 22:28:00,
2013-03-01 17:33:00,28.0,22.9,29.82,ENE,68,0.0,0.0,81,0.00,,---,0.02,VWS V14.01,2013-03-01 22:33:00,
2013-03-01 17:38:00,28.0,22.9,29.82,ENE,68,0.0,0.0,81,0.00,,---,0.02,VWS V14.01,2013-03-01 22:38:00,
2013-03-01 17:43:00,28.0,22.9,29.82,NE,45,0.0,0.0,81,0.00,,---,0.02,VWS V14.01,2013-03-01 22:43:00,
2013-03-01 17:48:00,27.8,22.7,29.83,ENE,68,0.0,0.0,81,0.00,,---,0.02,VWS V14.01,2013-03-01 22:48:00,
2013-03-01 17:53:00,27.6,22.5,29.83,ENE,68,0.0,0.0,81,0.00,,---,0.02,VWS V14.01,2013-03-01 22:53:00,
2013-03-01 17:58:00,27.6,22.5,29.84,ENE,68,0.0,0.0,81,0.00,,---,0.02,VWS V14.01,2013-03-01 22:58:00,
2013-03-01 18:03:00,27.6,22.5,29.84,ENE,68,0.0,0.0,81,0.00,,---,0.02,VWS V14.01,2013-03-01 23:03:00,
2013-03-01 18:08:00,27.6,22.5,29.84,ENE,68,0.0,0.0,81,0.00,,---,0.02,VWS V14.01,2013-03-01 23:08:00,
2013-03-01 18:13:00,27.5,22.5,29.84,ENE,68,0.0,0.0,81,0.00,,---,0.02,VWS V14.01,2013-03-01 23:13:00,
2013-03-01 18:18:00,27.5,22.5,29.84,ENE,68,0.0,0.0,81,0.00,,---,0.02,VWS V14.01,2013-03-01 23:18:00,
2013-03-01 18:23:00,27.3,22.2,29.84,NE,45,0.0,0.0,81,0.00,,---,0.02,VWS V14.01,2013-03-01 23:23:00,
2013-03-01 18:28:00,27.3,22.2,29.84,NW,315,0.0,0.0,81,0.00,,---,0.02,VWS V14.01,2013-03-01 23:28:00,
2013-03-01 18:33:00,27.1,22.1,29.84,NW,315,0.8,0.8,81,0.00,,---,0.02,VWS V14.01,2013-03-01 23:33:00,
2013-03-01 18:38:00,27.1,22.1,29.84,NW,315,0.0,0.0,81,0.00,,---,0.02,VWS V14.01,2013-03-01 23:38:00,
2013-03-01 18:43:00,27.1,22.1,29.84,NW,315,0.0,0.0,81,0.00,,---,0.02,VWS V14.01,2013-03-01 23:43:00,
2013-03-01 18:48:00,27.1,22.1,29.84,NW,315,0.0,0.0,81,0.00,,---,0.02,VWS V14.01,2013-03-01 23:48:00,
2013-03-01 18:53:00,27.1,22.4,29.84,NW,315,0.0,0.0,82,0.00,,---,0.02,VWS V14.01,2013-03-01 23:53:00,
2013-03-01 18:58:00,26.9,21.9,29.84,NW,315,0.0,0.0,81,0.00,,---,0.02,VWS V14.01,2013-03-01 23:58:00,
2013-03-01 19:03:00,26.9,22.1,29.84,WNW,292,0.0,0.0,82,0.00,,---,0.02,VWS V14.01,2013-03-02 00:03:00,
2013-03-01 19:08:00,26.9,21.9,29.84,WNW,292,0.0,0.0,81,0.00,,---,0.02,VWS V14.01,2013-03-02 00:08:00,
2013-03-01 19:13:00,26.9,21.9,29.84,WNW,292,0.0,0.0,81,0.00,,---,0.02,VWS V14.01,2013-03-02 00:13:00,
2013-03-01 19:18:00,26.9,21.9,29.84,NW,315,0.0,0.0,81,0.00,,---,0.02,VWS V14.01,2013-03-02 00:18:00,
2013-03-01 19:23:00,26.9,21.9,29.84,NW,315,0.0,0.0,81,0.00,,---,0.02,VWS V14.01,2013-03-02 00:23:00,
2013-03-01 19:28:00,26.9,21.9,29.84,NW,315,6.0,6.0,81,0.00,,---,0.02,VWS V14.01,2013-03-02 00:28:00,
2013-03-01 19:33:00,26.7,21.7,29.84,WNW,292,0.0,0.0,81,0.00,,---,0.02,VWS V14.01,2013-03-02 00:33:00,
2013-03-01 19:38:00,26.7,21.7,29.84,NW,315,0.0,0.0,81,0.00,,---,0.02,VWS V14.01,2013-03-02 00:38:00,
2013-03-01 19:43:00,26.6,21.6,29.84,NW,315,0.0,0.0,81,0.00,,---,0.02,VWS V14.01,2013-03-02 00:43:00,
2013-03-01 19:48:00,26.6,21.6,29.84,NW,315,0.0,0.0,81,0.00,,---,0.02,VWS V14.01,2013-03-02 00:48:00,
2013-03-01 19:53:00,26.7,21.7,29.85,NW,315,0.0,0.0,81,0.00,,---,0.02,VWS V14.01,2013-03-02 00:53:00,
2013-03-01 19:58:00,26.7,21.7,29.84,NW,315,0.0,0.0,81,0.00,,---,0.02,VWS V14.01,2013-03-02 00:58:00,
2013-03-01 20:03:00,26.7,21.7,29.85,NW,315,0.0,0.0,81,0.00,,---,0.02,VWS V14.01,2013-03-02 01:03:00,
2013-03-01 20:08:00,26.7,21.7,29.85,NW,315,0.0,0.0,81,0.00,,---,0.02,VWS V14.01,2013-03-02 01:08:00,
2013-03-01 20:13:00,26.6,21.6,29.84,WNW,292,0.0,0.0,81,0.00,,---,0.02,VWS V14.01,2013-03-02 01:13:00,
2013-03-01 20:18:00,26.4,21.4,29.85,WNW,292,0.0,0.0,81,0.00,,---,0.02,VWS V14.01,2013-03-02 01:18:00,
2013-03-01 20:23:00,26.4,21.4,29.84,NW,315,0.0,0.0,81,0.00,,---,0.02,VWS V14.01,2013-03-02 01:23:00,
2013-03-01 20:28:00,26.4,21.4,29.85,NW,315,0.0,0.0,81,0.00,,---,0.02,VWS V14.01,2013-03-02 01:28:00,
2013-03-01 20:33:00,26.4,21.4,29.85,NW,315,0.0,0.0,81,0.00,,---,0.02,VWS V14.01,2013-03-02 01:33:00,
2013-03-01 20:38:00,26.4,21.4,29.84,NW,315,0.0,0.0,81,0.00,,---,0.02,VWS V14.01,2013-03-02 01:38:00,
2013-03-01 20:43:00,26.4,21.4,29.85,NW,315,0.0,0.0,81,0.00,,---,0.02,VWS V14.01,2013-03-02 01:43:00,
2013-03-01 20:48:00,26.4,21.4,29.85,NW,315,0.0,0.0,81,0.00,,---,0.02,VWS V14.01,2013-03-02 01:48:00,
2013-03-01 20:53:00,26.4,21.4,29.85,WNW,292,0.0,0.0,81,0.00,,---,0.02,VWS V14.01,2013-03-02 01:53:00,
2013-03-01 20:58:00,26.2,21.2,29.85,SE,135,0.0,0.0,81,0.00,,---,0.02,VWS V14.01,2013-03-02 01:58:00,
2013-03-01 21:03:00,26.2,21.2,29.85,NW,315,0.0,0.0,81,0.00,,---,0.02,VWS V14.01,2013-03-02 02:03:00,
2013-03-01 21:08:00,26.2,21.2,29.85,NW,315,0.0,0.0,81,0.00,,---,0.02,VWS V14.01,2013-03-02 02:08:00,
2013-03-01 21:13:00,26.0,21.0,29.85,NW,315,0.0,0.0,81,0.00,,---,0.02,VWS V14.01,2013-03-02 02:13:00,
2013-03-01 21:18:00,25.8,20.8,29.85,WNW,292,0.0,0.0,81,0.00,,---,0.02,VWS V14.01,2013-03-02 02:18:00,
2013-03-01 21:23:00,25.8,20.8,29.85,WNW,292,0.0,0.0,81,0.00,,---,0.02,VWS V14.01,2013-03-02 02:23:00,
2013-03-01 21:28:00,25.7,20.7,29.85,NW,315,0.0,0.0,81,0.00,,---,0.02,VWS V14.01,2013-03-02 02:28:00,
2013-03-01 21:33:00,25.7,20.7,29.85,NW,315,0.0,0.0,81,0.00,,---,0.02,VWS V14.01,2013-03-02 02:33:00,
2013-03-01 21:38:00,25.7,20.7,29.85,NW,315,0.0,0.0,81,0.00,,---,0.02,VWS V14.01,2013-03-02 02:38:00,
2013-03-01 21:43:00,25.5,20.5,29.85,NW,315,0.0,0.0,81,0.00,,---,0.02,VWS V14.01,2013-03-02 02:43:00,
2013-03-01 21:48:00,25.5,20.5,29.85,WNW,292,0.0,0.0,81,0.00,,---,0.02,VWS V14.01,2013-03-02 02:48:00,
2013-03-01 21:53:00,25.5,20.5,29.85,WNW,292,0.0,0.0,81,0.00,,---,0.02,VWS V14.01,2013-03-02 02:53:00,
2013-03-01 21:58:00,25.3,20.3,29.85,NW,315,0.0,0.0,81,0.00,,---,0.02,VWS V14.01,2013-03-02 02:58:00,
2013-03-01 22:03:00,25.3,20.3,29.85,North,0,0.0,0.0,81,0.00,,---,0.02,VWS V14.01,2013-03-02 03:03:00,
2013-03-01 22:08:00,25.3,20.3,29.85,NNW,338,0.0,0.0,81,0.00,,---,0.02,VWS V14.01,2013-03-02 03:08:00,
2013-03-01 22:13:00,25.3,20.3,29.85,NW,315,0.0,0.0,81,0.00,,---,0.02,VWS V14.01,2013-03-02 03:13:00,
2013-03-01 22:18:00,25.3,20.6,29.85,NW,315,0.0,0.0,82,0.00,,---,0.02,VWS V14.01,2013-03-02 03:18:00,
2013-03-01 22:23:00,25.3,20.6,29.85,NW,315,0.0,0.0,82,0.00,,---,0.02,VWS V14.01,2013-03-02 03:23:00,
2013-03-01 22:28:00,25.3,20.6,29.84,North,0,0.0,0.0,82,0.00,,---,0.02,VWS V14.01,2013-03-02 03:28:00,
2013-03-01 22:33:00,25.3,20.6,29.85,NNW,338,0.0,0.0,82,0.00,,---,0.02,VWS V14.01,2013-03-02 03:33:00,
2013-03-01 22:38:00,25.3,20.6,29.85,NNW,338,0.0,0.0,82,0.00,,---,0.02,VWS V14.01,2013-03-02 03:38:00,
2013-03-01 22:43:00,24.9,20.2,29.85,NW,315,0.0,0.0,82,0.00,,---,0.02,VWS V14.01,2013-03-02 03:43:00,
2013-03-01 22:48:00,24.9,20.2,29.85,WNW,292,0.0,0.0,82,0.00,,---,0.02,VWS V14.01,2013-03-02 03:48:00,
2013-03-01 22:53:00,24.9,20.2,29.85,WNW,292,0.0,0.0,82,0.00,,---,0.02,VWS V14.01,2013-03-02 03:53:00,
2013-03-01 22:58:00,24.9,20.2,29.85,WNW,292,0.0,0.0,82,0.00,,---,0.02,VWS V14.01,2013-03-02 03:58:00,
2013-03-01 23:03:00,24.9,20.2,29.85,WNW,292,0.0,0.0,82,0.00,,---,0.02,VWS V14.01,2013-03-02 04:03:00,
2013-03-01 23:08:00,24.9,20.2,29.84,WNW,292,0.0,0.0,82,0.00,,---,0.02,VWS V14.01,2013-03-02 04:08:00,
2013-03-01 23:13:00,24.8,20.1,29.85,WNW,292,0.0,0.0,82,0.00,,---,0.02,VWS V14.01,2013-03-02 04:13:00,
2013-03-01 23:18:00,24.6,19.9,29.84,WNW,292,0.0,0.0,82,0.00,,---,0.02,VWS V14.01,2013-03-02 04:18:00,
2013-03-01 23:23:00,24.8,20.1,29.84,WNW,292,0.0,0.0,82,0.00,,---,0.02,VWS V14.01,2013-03-02 04:23:00,
2013-03-01 23:28:00,24.6,19.9,29.84,WNW,292,0.0,0.0,82,0.00,,---,0.02,VWS V14.01,2013-03-02 04:28:00,
2013-03-01 23:33:00,24.6,19.9,29.84,WNW,292,0.0,0.0,82,0.00,,---,0.02,VWS V14.01,2013-03-02 04:33:00,
2013-03-01 23:38:00,24.6,19.9,29.84,WNW,292,0.0,0.0,82,0.00,,---,0.02,VWS V14.01,2013-03-02 04:38:00,
2013-03-01 23:43:00,24.6,19.9,29.84,WNW,292,0.0,0.0,82,0.00,,---,0.02,VWS V14.01,2013-03-02 04:43:00,
2013-03-01 23:48:00,24.6,19.9,29.84,WNW,292,0.0,0.0,82,0.00,,---,0.02,VWS V14.01,2013-03-02 04:48:00,
2013-03-01 23:53:00,24.4,19.7,29.84,WNW,292,0.0,0.0,82,0.00,,---,0.02,VWS V14.01,2013-03-02 04:53:00,
2013-03-01 23:58:00,24.4,19.7,29.85,WNW,292,0.0,0.0,82,0.00,,---,0.02,VWS V14.01,2013-03-02 04:58:00,